Time;durP1;ratioP1;P1;durP2;ratioP2;P2;SDS_P1;SDS_P2;PMS_P1;PMS_P2;Temp;Humidity;BMP_temperature;BMP_pressure;BME280_temperature;BME280_humidity;BME280_pressure;Samples;Min_cycle;Max_cycle;Signal;HPM_P1;HPM_P2
2023/10/09 00:01:18;;;;;;;462.00;189.47;;;;;;;;;;5013622;28;20371;-56
2023/10/09 00:03:53;;;;;;;457.50;186.03;;;;;;;;;;5007933;28;20294;-57
2023/10/09 00:06:32;;;;;;;480.77;197.77;;;;;;;;;;5009721;28;20263;-56
2023/10/09 00:08:58;;;;;;;436.00;167.90;;;;;;;;;;5011018;28;20265;-56
2023/10/09 00:11:29;;;;;;;463.97;190.23;;;;;;;;;;5016103;28;20253;-56
2023/10/09 00:14:00;;;;;;;448.80;185.53;;;;;;;;;;5014781;28;20199;-56
2023/10/09 00:16:40;;;;;;;439.67;177.07;;;;;;;;;;5018467;28;20200;-56
2023/10/09 00:21:42;;;;;;;458.17;181.57;;;;;;;;;;5013100;28;20219;-56
2023/10/09 00:24:13;;;;;;;473.23;196.27;;;;;;;;;;5011824;28;20402;-57
2023/10/09 00:26:45;;;;;;;498.33;207.33;;;;;;;;;;5012894;28;20192;-56
2023/10/09 00:29:15;;;;;;;477.30;198.53;;;;;;;;;;5016661;28;20208;-56
2023/10/09 00:31:49;;;;;;;456.57;185.00;;;;;;;;;;5011560;28;20189;-56
2023/10/09 00:34:19;;;;;;;735.53;361.27;;;;;;;;;;5004500;28;20291;-57
2023/10/09 00:36:51;;;;;;;471.70;200.10;;;;;;;;;;5004875;28;20185;-56
2023/10/09 00:39:23;;;;;;;480.47;202.33;;;;;;;;;;5000297;28;20481;-57
2023/10/09 00:41:49;;;;;;;489.47;201.80;;;;;;;;;;5007559;28;20224;-57
2023/10/09 00:44:15;;;;;;;493.20;209.00;;;;;;;;;;4999353;28;20181;-57
2023/10/09 00:46:43;;;;;;;535.57;228.63;;;;;;;;;;5000025;28;20553;-56
2023/10/09 00:49:10;;;;;;;514.70;226.43;;;;;;;;;;5003318;28;20208;-56
2023/10/09 00:51:40;;;;;;;437.90;178.90;;;;;;;;;;4995458;28;20331;-56
2023/10/09 00:54:13;;;;;;;476.20;197.13;;;;;;;;;;4998963;28;20613;-57
2023/10/09 00:56:43;;;;;;;468.57;188.63;;;;;;;;;;5000559;28;20188;-56
2023/10/09 00:59:14;;;;;;;496.00;212.90;;;;;;;;;;4998359;28;20204;-56
2023/10/09 01:01:41;;;;;;;459.30;193.13;;;;;;;;;;4996685;28;20197;-57
2023/10/09 01:04:10;;;;;;;549.13;246.63;;;;;;;;;;4987260;28;20185;-56
2023/10/09 01:06:43;;;;;;;466.33;187.73;;;;;;;;;;4996522;28;20181;-57
2023/10/09 01:09:10;;;;;;;502.40;212.57;;;;;;;;;;4998583;28;20219;-56
2023/10/09 01:11:47;;;;;;;439.10;182.77;;;;;;;;;;5000707;28;20567;-56
2023/10/09 01:14:13;;;;;;;506.20;218.03;;;;;;;;;;4999689;28;20189;-57
2023/10/09 01:16:41;;;;;;;451.67;180.70;;;;;;;;;;4995079;28;20234;-57
2023/10/09 01:19:21;;;;;;;511.20;220.53;;;;;;;;;;4996199;28;20282;-56
2023/10/09 01:21:47;;;;;;;498.63;207.83;;;;;;;;;;4989423;28;20295;-56
2023/10/09 01:24:16;;;;;;;438.10;179.20;;;;;;;;;;4999692;28;20593;-57
2023/10/09 01:26:54;;;;;;;436.63;177.40;;;;;;;;;;5007474;28;20188;-56
2023/10/09 01:29:27;;;;;;;492.20;211.60;;;;;;;;;;5002090;28;24090;-56
2023/10/09 01:32:00;;;;;;;443.33;179.30;;;;;;;;;;4998664;28;20184;-56
2023/10/09 01:34:42;;;;;;;459.37;186.43;;;;;;;;;;4993620;28;20249;-57
2023/10/09 01:37:15;;;;;;;486.63;203.67;;;;;;;;;;5003276;28;20216;-56
2023/10/09 01:39:42;;;;;;;476.33;194.30;;;;;;;;;;5002388;28;20571;-55
2023/10/09 01:42:08;;;;;;;494.57;208.83;;;;;;;;;;4996547;28;20193;-56
2023/10/09 01:44:34;;;;;;;462.23;188.00;;;;;;;;;;4990640;28;20662;-56
2023/10/09 01:47:13;;;;;;;431.30;168.97;;;;;;;;;;4994171;28;20288;-56
2023/10/09 01:49:43;;;;;;;454.93;180.93;;;;;;;;;;4997954;28;20599;-56
2023/10/09 01:52:10;;;;;;;504.97;211.50;;;;;;;;;;4997111;28;20200;-56
2023/10/09 01:54:40;;;;;;;443.63;174.13;;;;;;;;;;5003497;28;20279;-56
2023/10/09 01:57:13;;;;;;;487.93;195.13;;;;;;;;;;4997749;28;20231;-56
2023/10/09 01:59:43;;;;;;;430.77;171.17;;;;;;;;;;4992731;28;20643;-57
2023/10/09 02:05:24;;;;;;;455.03;181.50;;;;;;;;;;4995107;28;20207;-56
2023/10/09 02:07:53;;;;;;;466.07;188.17;;;;;;;;;;4995873;28;20235;-56
2023/10/09 02:13:09;;;;;;;497.17;207.67;;;;;;;;;;5006778;28;20581;-56
2023/10/09 02:21:12;;;;;;;444.87;178.10;;;;;;;;;;4998751;28;20218;-56
2023/10/09 02:26:25;;;;;;;488.30;198.60;;;;;;;;;;4999815;28;20684;-56
2023/10/09 02:29:03;;;;;;;440.17;179.23;;;;;;;;;;5000291;28;20262;-56
2023/10/09 02:31:35;;;;;;;449.70;184.03;;;;;;;;;;5003653;28;20210;-56
2023/10/09 02:34:05;;;;;;;545.03;228.83;;;;;;;;;;4999223;28;20192;-56
2023/10/09 02:36:31;;;;;;;457.00;177.50;;;;;;;;;;4999670;28;20188;-56
2023/10/09 02:38:57;;;;;;;458.97;187.37;;;;;;;;;;5003588;28;20236;-56
2023/10/09 02:41:28;;;;;;;528.03;222.30;;;;;;;;;;4998584;28;20300;-56
2023/10/09 02:43:55;;;;;;;479.47;197.60;;;;;;;;;;4996501;28;20184;-56
2023/10/09 02:46:28;;;;;;;443.53;177.47;;;;;;;;;;4998940;28;20180;-55
2023/10/09 02:48:58;;;;;;;471.87;192.07;;;;;;;;;;5000215;28;20202;-56
2023/10/09 02:53:57;;;;;;;458.53;181.47;;;;;;;;;;4995863;28;20203;-56
2023/10/09 02:56:24;;;;;;;453.93;182.80;;;;;;;;;;5003169;28;20228;-56
2023/10/09 02:58:53;;;;;;;459.47;186.43;;;;;;;;;;4996403;28;20259;-56
2023/10/09 03:01:19;;;;;;;453.40;183.83;;;;;;;;;;4996203;28;20218;-55
2023/10/09 03:03:47;;;;;;;468.90;186.97;;;;;;;;;;4998063;28;20195;-56
2023/10/09 03:06:24;;;;;;;457.97;185.17;;;;;;;;;;5000234;28;20694;-56
2023/10/09 03:08:51;;;;;;;499.17;200.40;;;;;;;;;;4999063;28;20205;-55
2023/10/09 03:11:18;;;;;;;463.50;186.43;;;;;;;;;;5004900;28;20203;-56
2023/10/09 03:13:45;;;;;;;513.87;210.93;;;;;;;;;;4989850;28;20189;-56
2023/10/09 03:16:19;;;;;;;461.10;187.77;;;;;;;;;;5000387;28;20203;-56
2023/10/09 03:18:49;;;;;;;458.27;182.70;;;;;;;;;;4999565;28;20511;-56
2023/10/09 03:21:16;;;;;;;481.70;202.07;;;;;;;;;;4996433;28;20300;-56
2023/10/09 03:23:43;;;;;;;453.53;182.43;;;;;;;;;;5002575;28;20749;-56
2023/10/09 03:26:10;;;;;;;447.57;178.33;;;;;;;;;;5000506;28;20211;-57
2023/10/09 03:28:36;;;;;;;447.27;177.03;;;;;;;;;;4998928;28;20243;-57
2023/10/09 03:31:02;;;;;;;445.23;180.00;;;;;;;;;;4997777;28;20687;-56
2023/10/09 03:33:35;;;;;;;425.27;163.63;;;;;;;;;;5001396;28;20192;-56
2023/10/09 03:36:01;;;;;;;474.80;194.60;;;;;;;;;;5003883;28;20193;-56
2023/10/09 03:38:34;;;;;;;477.77;195.90;;;;;;;;;;5005147;28;20399;-56
2023/10/09 03:41:07;;;;;;;438.20;174.93;;;;;;;;;;5001669;28;20197;-56
2023/10/09 03:43:41;;;;;;;431.30;172.57;;;;;;;;;;4996226;28;20216;-57
2023/10/09 03:46:21;;;;;;;438.90;171.57;;;;;;;;;;5003623;28;20263;-56
2023/10/09 03:48:57;;;;;;;470.40;188.00;;;;;;;;;;5006377;28;20684;-56
2023/10/09 03:51:23;;;;;;;475.17;192.83;;;;;;;;;;4997948;28;20267;-56
2023/10/09 03:53:50;;;;;;;470.80;189.47;;;;;;;;;;4995260;28;20906;-57
2023/10/09 03:56:17;;;;;;;453.90;183.23;;;;;;;;;;4999741;28;20192;-57
2023/10/09 03:58:45;;;;;;;424.37;169.77;;;;;;;;;;5001487;28;20216;-56
2023/10/09 04:01:22;;;;;;;450.73;182.37;;;;;;;;;;4995131;28;20298;-57
2023/10/09 04:03:48;;;;;;;438.03;177.20;;;;;;;;;;4997038;28;20180;-56
2023/10/09 04:06:17;;;;;;;463.37;187.63;;;;;;;;;;4994440;28;20461;-56
2023/10/09 04:08:47;;;;;;;471.03;186.20;;;;;;;;;;4995422;28;20254;-57
2023/10/09 04:11:17;;;;;;;501.87;209.90;;;;;;;;;;5000993;28;20189;-56
2023/10/09 04:13:46;;;;;;;505.07;216.53;;;;;;;;;;5000153;28;20181;-57
2023/10/09 04:18:56;;;;;;;474.67;189.57;;;;;;;;;;5005811;28;20302;-52
2023/10/09 04:21:35;;;;;;;459.90;185.07;;;;;;;;;;5003067;28;20558;-52
2023/10/09 04:26:46;;;;;;;444.93;173.17;;;;;;;;;;5007470;28;20222;-52
2023/10/09 04:29:38;;;;;;;485.97;195.97;;;;;;;;;;5006481;28;20697;-52
2023/10/09 04:32:07;;;;;;;446.47;176.90;;;;;;;;;;5002918;28;20193;-52
2023/10/09 04:34:46;;;;;;;454.90;182.10;;;;;;;;;;5004803;28;20188;-52
2023/10/09 04:39:46;;;;;;;501.70;212.70;;;;;;;;;;5011127;28;20212;-53
2023/10/09 04:47:36;;;;;;;478.00;193.97;;;;;;;;;;5004582;28;20180;-52
2023/10/09 04:57:37;;;;;;;477.33;193.73;;;;;;;;;;5007007;28;20176;-53
2023/10/09 05:00:06;;;;;;;489.83;203.23;;;;;;;;;;5004309;28;20211;-53
2023/10/09 05:02:36;;;;;;;540.37;230.37;;;;;;;;;;5006665;28;20196;-52
2023/10/09 05:05:47;;;;;;;440.23;172.83;;;;;;;;;;5004941;28;20290;-53
2023/10/09 05:08:19;;;;;;;458.30;184.77;;;;;;;;;;5013518;28;20221;-52
2023/10/09 05:11:15;;;;;;;448.30;176.07;;;;;;;;;;5001780;28;20188;-52
2023/10/09 05:16:05;;;;;;;433.97;170.60;;;;;;;;;;5009327;28;20713;-53
2023/10/09 05:18:37;;;;;;;447.77;180.00;;;;;;;;;;5013034;28;20566;-52
2023/10/09 05:23:48;;;;;;;475.13;190.07;;;;;;;;;;5004985;28;20184;-52
2023/10/09 05:26:50;;;;;;;452.77;183.60;;;;;;;;;;4971369;28;20874;-53
2023/10/09 05:37:17;;;;;;;468.93;186.07;;;;;;;;;;4990948;28;20279;-52
2023/10/09 05:47:53;;;;;;;567.73;212.37;;;;;;;;;;4978644;28;20465;-53
2023/10/09 06:08:27;;;;;;;481.20;200.03;;;;;;;;;;4997833;28;20701;-50
2023/10/09 06:13:46;;;;;;;535.17;229.10;;;;;;;;;;4990893;28;20274;-53
2023/10/09 06:19:11;;;;;;;436.20;169.37;;;;;;;;;;4997026;28;20940;-54
2023/10/09 06:24:19;;;;;;;501.07;191.23;;;;;;;;;;4976875;28;20189;-53
2023/10/09 06:29:38;;;;;;;707.33;334.80;;;;;;;;;;4983093;28;20235;-53
2023/10/09 06:32:23;;;;;;;471.20;191.33;;;;;;;;;;4995651;28;30806;-53
2023/10/09 06:34:56;;;;;;;476.33;187.00;;;;;;;;;;4983421;28;20183;-53
2023/10/09 06:42:43;;;;;;;490.60;202.27;;;;;;;;;;4995717;28;20557;-53
2023/10/09 06:47:53;;;;;;;474.50;192.07;;;;;;;;;;4996870;28;20438;-53
2023/10/09 06:52:57;;;;;;;565.87;250.93;;;;;;;;;;4986375;28;20551;-53
2023/10/09 06:55:35;;;;;;;489.23;203.37;;;;;;;;;;4992260;28;20227;-53
2023/10/09 06:58:09;;;;;;;451.77;182.23;;;;;;;;;;4992008;28;20231;-53
2023/10/09 07:03:29;;;;;;;555.40;239.07;;;;;;;;;;4997179;28;20191;-53
2023/10/09 07:14:32;;;;;;;422.03;166.47;;;;;;;;;;5007905;28;20192;-53
2023/10/09 07:16:57;;;;;;;472.47;188.40;;;;;;;;;;5008861;28;20263;-53
2023/10/09 07:19:57;;;;;;;515.90;215.17;;;;;;;;;;5004266;28;20568;-53
2023/10/09 07:24:56;;;;;;;487.43;203.47;;;;;;;;;;5002924;28;20190;-53
2023/10/09 07:27:45;;;;;;;505.67;212.37;;;;;;;;;;4994989;28;27904;-53
2023/10/09 07:38:22;;;;;;;445.30;174.77;;;;;;;;;;5005414;28;20543;-52
2023/10/09 07:40:55;;;;;;;571.10;256.50;;;;;;;;;;4996694;28;22320;-53
2023/10/09 07:43:25;;;;;;;467.83;193.20;;;;;;;;;;4992384;28;20787;-53
2023/10/09 07:48:25;;;;;;;445.73;173.73;;;;;;;;;;5009885;28;20186;-53
2023/10/09 07:50:57;;;;;;;509.20;216.37;;;;;;;;;;4996767;28;20236;-53
2023/10/09 07:53:26;;;;;;;528.00;221.03;;;;;;;;;;5004198;28;20184;-53
2023/10/09 07:55:58;;;;;;;627.90;293.73;;;;;;;;;;4991316;28;20188;-53
2023/10/09 07:58:25;;;;;;;513.07;216.47;;;;;;;;;;4995486;28;20231;-53
2023/10/09 08:01:07;;;;;;;453.53;187.10;;;;;;;;;;5013391;28;20569;-53
2023/10/09 08:03:36;;;;;;;458.53;186.50;;;;;;;;;;5004390;28;20192;-53
2023/10/09 08:09:48;;;;;;;522.10;223.70;;;;;;;;;;4996223;28;20676;-53
2023/10/09 08:16:47;;;;;;;556.50;245.80;;;;;;;;;;4989288;28;20732;-53
2023/10/09 08:24:43;;;;;;;472.13;194.23;;;;;;;;;;5009291;28;20224;-53
2023/10/09 08:30:28;;;;;;;505.77;212.63;;;;;;;;;;4997398;28;20210;-53
2023/10/09 08:32:42;;;;;;;503.00;211.47;;;;;;;;;;5003210;28;20199;-53
2023/10/09 08:35:29;;;;;;;465.90;191.83;;;;;;;;;;5006590;28;20322;-53
2023/10/09 08:37:58;;;;;;;481.47;196.90;;;;;;;;;;5007591;28;20378;-53
2023/10/09 08:40:31;;;;;;;474.07;192.50;;;;;;;;;;5009825;28;20201;-53
2023/10/09 08:42:59;;;;;;;493.17;210.07;;;;;;;;;;4990998;28;20276;-53
2023/10/09 08:45:27;;;;;;;453.80;183.37;;;;;;;;;;5017364;28;20203;-53
2023/10/09 08:47:56;;;;;;;466.87;192.47;;;;;;;;;;5012082;28;20207;-53
2023/10/09 08:50:28;;;;;;;439.37;176.87;;;;;;;;;;5001390;28;20213;-53
2023/10/09 08:52:55;;;;;;;549.57;247.17;;;;;;;;;;5002525;28;20557;-54
2023/10/09 08:55:21;;;;;;;540.57;235.33;;;;;;;;;;5001056;28;20280;-53
2023/10/09 08:57:47;;;;;;;558.33;245.13;;;;;;;;;;4981952;28;22286;-53
2023/10/09 09:00:33;;;;;;;440.43;177.03;;;;;;;;;;5002044;28;20844;-53
2023/10/09 09:03:00;;;;;;;450.97;185.97;;;;;;;;;;5006708;28;20559;-53
2023/10/09 09:05:28;;;;;;;563.17;254.73;;;;;;;;;;4994332;28;20192;-53
2023/10/09 09:07:59;;;;;;;457.83;187.17;;;;;;;;;;4999547;28;20191;-53
2023/10/09 09:10:35;;;;;;;471.43;192.00;;;;;;;;;;5007771;28;20206;-53
2023/10/09 09:13:03;;;;;;;477.50;198.60;;;;;;;;;;4990217;28;20215;-53
2023/10/09 09:15:29;;;;;;;476.10;195.53;;;;;;;;;;4992471;28;20204;-53
2023/10/09 09:18:17;;;;;;;517.47;211.47;;;;;;;;;;4995566;28;20203;-53
2023/10/09 09:21:01;;;;;;;459.73;184.53;;;;;;;;;;5000763;28;20215;-53
2023/10/09 09:23:27;;;;;;;480.90;193.80;;;;;;;;;;4993371;28;35854;-53
2023/10/09 09:25:59;;;;;;;585.33;269.47;;;;;;;;;;4992055;28;34225;-53
2023/10/09 09:28:26;;;;;;;467.53;189.70;;;;;;;;;;4988217;28;20667;-53
2023/10/09 09:30:55;;;;;;;478.07;193.97;;;;;;;;;;4995675;28;22142;-53
2023/10/09 09:33:26;;;;;;;458.53;185.07;;;;;;;;;;4990202;28;20183;-53
2023/10/09 09:35:58;;;;;;;508.03;219.97;;;;;;;;;;5000077;28;20490;-53
2023/10/09 09:38:27;;;;;;;469.23;192.23;;;;;;;;;;4992023;28;20663;-53
2023/10/09 09:40:56;;;;;;;549.13;245.87;;;;;;;;;;4987094;28;23256;-53
2023/10/09 09:43:25;;;;;;;430.83;174.03;;;;;;;;;;4995225;28;20553;-53
2023/10/09 09:45:56;;;;;;;568.83;251.60;;;;;;;;;;4994247;28;20180;-53
2023/10/09 09:48:23;;;;;;;444.97;181.23;;;;;;;;;;4996257;28;20271;-53
2023/10/09 09:50:54;;;;;;;495.27;208.20;;;;;;;;;;4999168;28;20605;-53
2023/10/09 09:53:23;;;;;;;440.77;184.27;;;;;;;;;;4986739;28;20188;-53
2023/10/09 09:55:55;;;;;;;607.00;288.13;;;;;;;;;;4995356;28;20211;-53
2023/10/09 09:58:23;;;;;;;475.47;197.00;;;;;;;;;;4994647;28;20176;-53
2023/10/09 10:00:54;;;;;;;553.83;245.40;;;;;;;;;;5002108;28;20313;-53
2023/10/09 10:03:22;;;;;;;465.57;193.07;;;;;;;;;;4998602;28;20195;-53
2023/10/09 10:05:50;;;;;;;507.10;214.43;;;;;;;;;;4989376;28;20183;-53
2023/10/09 10:08:20;;;;;;;458.10;185.40;;;;;;;;;;4992157;28;20180;-53
2023/10/09 10:10:52;;;;;;;643.33;300.27;;;;;;;;;;4997658;28;20181;-53
2023/10/09 10:13:38;;;;;;;470.70;197.87;;;;;;;;;;4985330;28;20329;-53
2023/10/09 10:16:20;;;;;;;524.63;230.37;;;;;;;;;;4986296;28;22267;-53
2023/10/09 10:18:56;;;;;;;512.40;215.97;;;;;;;;;;4991442;28;20212;-53
2023/10/09 10:22:01;;;;;;;492.40;205.33;;;;;;;;;;4988731;28;23615;-53
2023/10/09 10:24:30;;;;;;;474.47;191.17;;;;;;;;;;5003334;28;20188;-53
2023/10/09 10:27:27;;;;;;;494.50;206.60;;;;;;;;;;4999131;28;20208;-53
2023/10/09 10:30:11;;;;;;;502.60;212.43;;;;;;;;;;5001911;28;20247;-53
2023/10/09 10:32:53;;;;;;;487.63;203.70;;;;;;;;;;5018820;28;20546;-53
2023/10/09 10:35:45;;;;;;;436.87;176.90;;;;;;;;;;5000773;28;20651;-52
2023/10/09 10:38:23;;;;;;;436.70;175.97;;;;;;;;;;5009472;28;20200;-53
2023/10/09 10:41:00;;;;;;;554.57;248.47;;;;;;;;;;4998838;28;23290;-53
2023/10/09 10:43:34;;;;;;;435.00;178.90;;;;;;;;;;5008493;28;20554;-53
2023/10/09 10:46:14;;;;;;;465.07;192.47;;;;;;;;;;5005452;28;20211;-53
2023/10/09 10:48:40;;;;;;;520.70;222.20;;;;;;;;;;5002394;28;20683;-53
2023/10/09 10:51:06;;;;;;;536.87;233.60;;;;;;;;;;5008291;28;20657;-53
2023/10/09 10:53:47;;;;;;;451.70;182.40;;;;;;;;;;5005737;28;20184;-53
2023/10/09 10:58:53;;;;;;;517.73;219.90;;;;;;;;;;4991244;28;20277;-53
2023/10/09 11:01:22;;;;;;;460.33;194.43;;;;;;;;;;5003175;28;20239;-53
2023/10/09 11:03:55;;;;;;;499.40;212.13;;;;;;;;;;4989735;28;20176;-53
2023/10/09 11:06:37;;;;;;;494.10;213.67;;;;;;;;;;4996502;28;20551;-53
2023/10/09 11:09:21;;;;;;;526.43;238.07;;;;;;;;;;4996741;28;20208;-53
2023/10/09 11:11:49;;;;;;;488.30;205.87;;;;;;;;;;4993375;28;20191;-53
2023/10/09 11:14:15;;;;;;;461.20;194.20;;;;;;;;;;5002218;28;20189;-53
2023/10/09 11:16:41;;;;;;;556.23;252.67;;;;;;;;;;4994538;28;20204;-53
2023/10/09 11:22:24;;;;;;;491.60;207.80;;;;;;;;;;4990463;28;20208;-53
2023/10/09 11:24:46;;;;;;;591.67;259.53;;;;;;;;;;4984002;28;21113;-53
2023/10/09 11:27:18;;;;;;;449.57;181.00;;;;;;;;;;4994467;28;31435;-53
2023/10/09 11:32:18;;;;;;;437.87;176.57;;;;;;;;;;4997804;28;20211;-53
2023/10/09 11:34:54;;;;;;;467.93;200.20;;;;;;;;;;5001508;28;20513;-52
2023/10/09 11:39:56;;;;;;;502.80;215.80;;;;;;;;;;4995067;28;20235;-52
2023/10/09 11:42:48;;;;;;;522.33;231.07;;;;;;;;;;4988895;28;27610;-53
2023/10/09 11:45:28;;;;;;;500.30;213.63;;;;;;;;;;4990708;28;20184;-53
2023/10/09 11:47:58;;;;;;;517.97;225.90;;;;;;;;;;4992373;28;26647;-53
2023/10/09 11:53:45;;;;;;;508.70;226.03;;;;;;;;;;4987160;28;20191;-53
2023/10/09 11:56:16;;;;;;;449.53;184.23;;;;;;;;;;4999977;28;27387;-53
2023/10/09 11:58:42;;;;;;;475.27;203.53;;;;;;;;;;4992780;28;20744;-53
2023/10/09 12:01:20;;;;;;;557.20;256.70;;;;;;;;;;4989098;28;24147;-53
2023/10/09 12:03:49;;;;;;;503.37;219.00;;;;;;;;;;5001010;28;20215;-53
2023/10/09 12:06:18;;;;;;;492.27;219.77;;;;;;;;;;4994374;28;20247;-53
2023/10/09 12:08:47;;;;;;;466.93;197.93;;;;;;;;;;5000689;28;20208;-53
2023/10/09 12:11:14;;;;;;;448.87;194.83;;;;;;;;;;5001337;28;20184;-53
2023/10/09 12:13:43;;;;;;;468.47;202.30;;;;;;;;;;4997499;28;20199;-53
2023/10/09 12:16:09;;;;;;;478.20;204.30;;;;;;;;;;5001942;28;20199;-53
2023/10/09 12:18:36;;;;;;;477.77;206.90;;;;;;;;;;5006299;28;20293;-53
2023/10/09 12:21:04;;;;;;;494.37;217.90;;;;;;;;;;5005264;28;20799;-53
2023/10/09 12:23:35;;;;;;;483.33;207.40;;;;;;;;;;5011928;28;20188;-53
2023/10/09 12:26:01;;;;;;;534.00;237.33;;;;;;;;;;4993074;28;20658;-53
2023/10/09 12:28:28;;;;;;;454.63;188.40;;;;;;;;;;4982332;28;20290;-53
2023/10/09 12:30:54;;;;;;;532.83;240.47;;;;;;;;;;4987373;28;20184;-53
2023/10/09 12:33:27;;;;;;;520.43;233.47;;;;;;;;;;5000111;28;20196;-53
2023/10/09 12:35:59;;;;;;;558.60;252.77;;;;;;;;;;5000281;28;21124;-54
2023/10/09 12:38:31;;;;;;;458.57;196.23;;;;;;;;;;4994496;28;28567;-53
2023/10/09 12:41:26;;;;;;;505.63;219.23;;;;;;;;;;5003939;28;20200;-53
2023/10/09 12:43:53;;;;;;;571.90;262.30;;;;;;;;;;4995528;28;20209;-53
2023/10/09 12:46:22;;;;;;;438.40;185.20;;;;;;;;;;4998551;28;20248;-53
2023/10/09 12:48:48;;;;;;;482.47;203.27;;;;;;;;;;4998717;28;20207;-53
2023/10/09 12:51:18;;;;;;;462.20;196.97;;;;;;;;;;4996825;28;20196;-53
2023/10/09 12:53:45;;;;;;;457.87;192.93;;;;;;;;;;4999721;28;20496;-53
2023/10/09 12:56:12;;;;;;;465.23;194.47;;;;;;;;;;4989584;28;23141;-52
2023/10/09 12:58:38;;;;;;;468.93;197.20;;;;;;;;;;4991111;28;20583;-53
2023/10/09 13:01:11;;;;;;;538.00;237.60;;;;;;;;;;4997884;28;20203;-53
2023/10/09 13:03:38;;;;;;;465.77;198.07;;;;;;;;;;4988833;28;20196;-53
2023/10/09 13:06:10;;;;;;;485.60;208.47;;;;;;;;;;4985044;28;20843;-53
2023/10/09 13:08:37;;;;;;;472.53;200.80;;;;;;;;;;5001518;28;20212;-53
2023/10/09 13:11:10;;;;;;;531.83;239.00;;;;;;;;;;4982643;28;20214;-52
2023/10/09 13:13:40;;;;;;;461.00;195.83;;;;;;;;;;5002002;28;20185;-53
2023/10/09 13:16:20;;;;;;;456.97;194.13;;;;;;;;;;4990280;28;20659;-52
2023/10/09 13:18:50;;;;;;;497.00;217.17;;;;;;;;;;4990613;28;20220;-53
2023/10/09 13:21:20;;;;;;;465.23;200.70;;;;;;;;;;4996931;28;20211;-53
2023/10/09 13:23:54;;;;;;;538.60;242.80;;;;;;;;;;4996357;28;20670;-53
2023/10/09 13:26:29;;;;;;;456.53;189.47;;;;;;;;;;4994258;28;20247;-53
2023/10/09 13:28:57;;;;;;;503.60;219.47;;;;;;;;;;5011130;28;20302;-53
2023/10/09 13:31:27;;;;;;;473.20;196.63;;;;;;;;;;5005722;28;20192;-53
2023/10/09 13:33:58;;;;;;;480.17;205.57;;;;;;;;;;5005494;28;20188;-52
2023/10/09 13:36:31;;;;;;;469.83;200.70;;;;;;;;;;4981120;28;20317;-52
2023/10/09 13:38:57;;;;;;;541.23;237.40;;;;;;;;;;4991398;28;20286;-53
2023/10/09 13:41:29;;;;;;;471.63;201.67;;;;;;;;;;4997695;28;20235;-53
2023/10/09 13:43:56;;;;;;;525.80;234.03;;;;;;;;;;4995367;28;20180;-53
2023/10/09 13:46:22;;;;;;;452.47;193.17;;;;;;;;;;5010260;28;20191;-52
2023/10/09 13:48:49;;;;;;;456.40;196.30;;;;;;;;;;5004176;28;20204;-52
2023/10/09 13:51:18;;;;;;;444.90;192.07;;;;;;;;;;4997624;28;20651;-52
2023/10/09 13:53:48;;;;;;;461.67;192.70;;;;;;;;;;5017130;28;20633;-53
2023/10/09 13:56:21;;;;;;;503.03;216.77;;;;;;;;;;4994681;28;22322;-53
2023/10/09 13:58:47;;;;;;;505.43;220.57;;;;;;;;;;5002634;28;20208;-53
2023/10/09 14:01:20;;;;;;;450.67;190.70;;;;;;;;;;5005990;28;20216;-53
2023/10/09 14:03:49;;;;;;;456.67;192.73;;;;;;;;;;5000639;28;20291;-53
2023/10/09 14:06:19;;;;;;;442.10;186.10;;;;;;;;;;5002919;28;20185;-53
2023/10/09 14:08:45;;;;;;;458.07;194.00;;;;;;;;;;5007027;28;20309;-53
2023/10/09 14:11:13;;;;;;;533.57;238.20;;;;;;;;;;4986964;28;20232;-53
2023/10/09 14:13:39;;;;;;;454.30;192.87;;;;;;;;;;5005769;28;20674;-52
2023/10/09 14:16:06;;;;;;;465.67;199.57;;;;;;;;;;5004183;28;20192;-53
2023/10/09 14:18:32;;;;;;;456.90;196.80;;;;;;;;;;4994465;28;20201;-53
2023/10/09 14:21:09;;;;;;;505.40;228.60;;;;;;;;;;4991722;28;20208;-53
2023/10/09 14:23:35;;;;;;;484.33;211.63;;;;;;;;;;5000877;28;20172;-53
2023/10/09 14:26:01;;;;;;;515.23;227.37;;;;;;;;;;4988004;28;20662;-53
2023/10/09 14:28:28;;;;;;;498.93;214.70;;;;;;;;;;4990318;28;20654;-53
2023/10/09 14:30:59;;;;;;;455.10;193.33;;;;;;;;;;4993737;28;20185;-53
2023/10/09 14:33:27;;;;;;;457.43;195.67;;;;;;;;;;4999560;28;20755;-53
2023/10/09 14:35:55;;;;;;;482.17;207.27;;;;;;;;;;4995375;28;20196;-53
2023/10/09 14:38:27;;;;;;;535.20;245.17;;;;;;;;;;4996694;28;20189;-53
2023/10/09 14:40:59;;;;;;;581.93;274.03;;;;;;;;;;4995790;28;20204;-53
2023/10/09 14:43:28;;;;;;;504.67;222.37;;;;;;;;;;4998019;28;20223;-53
2023/10/09 14:45:54;;;;;;;508.83;220.63;;;;;;;;;;4997165;28;20645;-53
2023/10/09 14:48:28;;;;;;;497.43;214.80;;;;;;;;;;4989100;28;20246;-53
2023/10/09 14:50:54;;;;;;;463.63;201.43;;;;;;;;;;4997419;28;20223;-52
2023/10/09 14:53:21;;;;;;;547.70;249.07;;;;;;;;;;4991477;28;20825;-52
2023/10/09 14:55:54;;;;;;;591.23;270.83;;;;;;;;;;4980234;28;20899;-52
2023/10/09 14:58:20;;;;;;;470.93;201.10;;;;;;;;;;4988583;28;20677;-52
2023/10/09 15:00:46;;;;;;;513.23;230.43;;;;;;;;;;4992732;28;20211;-52
2023/10/09 15:03:14;;;;;;;500.67;219.57;;;;;;;;;;4986864;28;20255;-52
2023/10/09 15:05:41;;;;;;;461.23;191.77;;;;;;;;;;4999356;28;20477;-52
2023/10/09 15:08:10;;;;;;;502.30;213.17;;;;;;;;;;5004268;28;20184;-52
2023/10/09 15:10:37;;;;;;;468.90;192.30;;;;;;;;;;4997050;28;20214;-52
2023/10/09 15:13:04;;;;;;;618.57;289.07;;;;;;;;;;4986156;28;22468;-52
2023/10/09 15:15:31;;;;;;;517.20;223.00;;;;;;;;;;5001407;28;20192;-52
2023/10/09 15:17:57;;;;;;;576.47;267.47;;;;;;;;;;4993952;28;20185;-52
2023/10/09 15:20:22;;;;;;;544.03;242.87;;;;;;;;;;4990106;28;20215;-52
2023/10/09 15:22:48;;;;;;;584.10;250.37;;;;;;;;;;4996373;28;20643;-52
2023/10/09 15:25:14;;;;;;;536.73;212.97;;;;;;;;;;4992554;28;20646;-51
2023/10/09 15:27:41;;;;;;;492.13;198.07;;;;;;;;;;4997108;28;35125;-52
2023/10/09 15:30:13;;;;;;;543.70;212.23;;;;;;;;;;5006106;28;20287;-52
2023/10/09 15:32:39;;;;;;;477.20;194.67;;;;;;;;;;5005188;28;20267;-52
2023/10/09 15:35:06;;;;;;;509.70;201.60;;;;;;;;;;5003404;28;20830;-51
2023/10/09 15:37:32;;;;;;;525.33;203.70;;;;;;;;;;5004272;28;20176;-52
2023/10/09 15:40:04;;;;;;;470.13;198.70;;;;;;;;;;4996981;28;28781;-52
2023/10/09 15:42:30;;;;;;;452.47;190.13;;;;;;;;;;5009898;28;20203;-51
2023/10/09 15:44:56;;;;;;;537.17;231.27;;;;;;;;;;4996001;28;22443;-51
2023/10/09 15:47:22;;;;;;;456.50;186.20;;;;;;;;;;5006347;28;20675;-52
2023/10/09 15:49:48;;;;;;;509.07;216.50;;;;;;;;;;4998147;28;20803;-51
2023/10/09 15:52:16;;;;;;;464.73;197.97;;;;;;;;;;4987174;28;20196;-53
2023/10/09 15:54:46;;;;;;;467.63;192.30;;;;;;;;;;5018935;28;20176;-53
2023/10/09 15:57:12;;;;;;;489.40;207.47;;;;;;;;;;5018829;28;20181;-51
2023/10/09 15:59:39;;;;;;;477.13;196.87;;;;;;;;;;5023350;28;20191;-51
2023/10/09 16:02:05;;;;;;;459.60;191.47;;;;;;;;;;5010903;28;20724;-52
2023/10/09 16:04:33;;;;;;;451.97;186.00;;;;;;;;;;5022979;28;20192;-51
2023/10/09 16:06:59;;;;;;;484.57;204.67;;;;;;;;;;5027160;28;20175;-51
2023/10/09 16:09:25;;;;;;;464.13;191.77;;;;;;;;;;5023282;28;20214;-51
2023/10/09 16:11:53;;;;;;;482.63;212.20;;;;;;;;;;5019677;28;20180;-51
2023/10/09 16:14:19;;;;;;;499.57;222.93;;;;;;;;;;5007020;28;20177;-51
2023/10/09 16:16:45;;;;;;;494.50;209.80;;;;;;;;;;5014533;22;20221;-55
2023/10/09 16:19:12;;;;;;;539.17;239.73;;;;;;;;;;5002060;28;21853;-55
2023/10/09 16:21:39;;;;;;;614.33;285.33;;;;;;;;;;4996552;28;20203;-55
2023/10/09 16:24:06;;;;;;;440.93;178.50;;;;;;;;;;4995407;28;20570;-55
2023/10/09 16:26:39;;;;;;;481.00;195.83;;;;;;;;;;5003980;28;20168;-55
2023/10/09 16:29:07;;;;;;;471.13;197.30;;;;;;;;;;4997628;28;20341;-55
2023/10/09 16:31:35;;;;;;;494.60;215.77;;;;;;;;;;4999756;28;20184;-55
2023/10/09 16:34:02;;;;;;;519.40;225.13;;;;;;;;;;4997918;28;20184;-56
2023/10/09 16:36:28;;;;;;;465.47;190.53;;;;;;;;;;5000234;28;20188;-55
2023/10/09 16:38:55;;;;;;;468.93;194.33;;;;;;;;;;4997138;28;20272;-55
2023/10/09 16:41:25;;;;;;;602.03;270.97;;;;;;;;;;5001613;28;20276;-56
2023/10/09 16:43:52;;;;;;;533.17;229.97;;;;;;;;;;4991201;28;20211;-56
2023/10/09 16:46:21;;;;;;;528.13;230.77;;;;;;;;;;4993180;28;20177;-56
2023/10/09 16:48:51;;;;;;;497.47;208.23;;;;;;;;;;5000520;28;20196;-56